createdAt,value
2022-08-25T00:00:47.492Z,42.86
2022-08-25T00:04:15.574Z,42.57
2022-08-25T00:05:21.552Z,42.88
2022-08-25T00:06:10.751Z,42.91
2022-08-25T00:09:51.567Z,42.71
2022-08-25T00:11:03.543Z,42.96
2022-08-25T00:12:16.033Z,43.01
2022-08-25T00:13:16.452Z,42.69
2022-08-25T00:14:04.123Z,42.98
2022-08-25T00:14:54.644Z,42.61
2022-08-25T00:15:49.465Z,42.76
2022-08-25T00:16:48.182Z,42.92
2022-08-25T00:17:39.365Z,42.95
2022-08-25T00:18:43.009Z,42.67
2022-08-25T00:19:43.853Z,42.86
2022-08-25T00:20:31.199Z,42.75
2022-08-25T00:21:19.749Z,42.78
2022-08-25T00:22:09.254Z,42.60
2022-08-25T00:22:54.744Z,42.59
2022-08-25T00:23:46.675Z,42.71
2022-08-25T00:25:46.778Z,42.64
2022-08-25T00:30:00.870Z,42.68
2022-08-25T00:30:54.398Z,42.91
2022-08-25T00:31:47.158Z,42.93
2022-08-25T00:35:39.941Z,42.82
2022-08-25T00:36:37.038Z,42.50
2022-08-25T00:37:32.141Z,42.51
2022-08-25T00:38:20.208Z,42.54
2022-08-25T00:39:08.956Z,42.70
2022-08-25T00:39:59.410Z,42.86
2022-08-25T00:40:57.459Z,42.50
2022-08-25T00:42:49.679Z,42.67
2022-08-25T00:43:42.707Z,42.56
2022-08-25T00:44:31.360Z,42.49
2022-08-25T00:45:22.871Z,42.45
2022-08-25T00:46:08.775Z,42.41
2022-08-25T00:46:56.911Z,42.51
2022-08-25T00:47:54.559Z,42.74
2022-08-25T00:49:53.367Z,42.48
2022-08-25T00:50:44.099Z,42.44
2022-08-25T00:51:37.660Z,42.55
2022-08-25T00:52:26.610Z,42.51
2022-08-25T00:53:19.969Z,42.44
2022-08-25T00:55:29.384Z,42.52
2022-08-25T00:56:17.177Z,42.37
2022-08-25T00:57:06.351Z,42.46
2022-08-25T00:57:53.163Z,42.69
2022-08-25T00:59:39.371Z,42.74
2022-08-25T01:00:33.970Z,42.52
2022-08-25T01:01:24.047Z,42.56
2022-08-25T01:02:13.666Z,42.79
2022-08-25T01:02:57.872Z,42.54
2022-08-25T01:04:34.717Z,42.86
2022-08-25T01:05:21.977Z,42.78
2022-08-25T01:06:09.124Z,42.54
2022-08-25T01:07:05.204Z,42.81
2022-08-25T01:08:47.727Z,42.49
2022-08-25T01:09:47.986Z,42.78
2022-08-25T01:10:38.186Z,42.44
2022-08-25T01:12:29.577Z,42.51
2022-08-25T01:13:22.314Z,42.52
2022-08-25T01:14:08.714Z,42.46
2022-08-25T01:14:56.680Z,42.84
2022-08-25T01:15:41.808Z,42.48
2022-08-25T01:16:30.336Z,42.74
2022-08-25T01:17:16.052Z,42.84
2022-08-25T01:18:02.569Z,42.55
2022-08-25T01:18:55.688Z,42.80
2022-08-25T01:19:36.646Z,42.54
2022-08-25T01:20:20.274Z,42.85
2022-08-25T01:22:10.208Z,42.57
2022-08-25T01:24:58.463Z,42.51
2022-08-25T01:25:56.474Z,42.58
2022-08-25T01:26:51.334Z,42.55
2022-08-25T01:27:44.321Z,42.86
2022-08-25T01:28:27.834Z,42.76
2022-08-25T01:29:15.962Z,42.78
2022-08-25T01:30:03.843Z,42.59
2022-08-25T01:30:53.020Z,42.77
2022-08-25T01:31:39.828Z,42.55
2022-08-25T01:32:26.238Z,42.72
2022-08-25T01:33:08.969Z,42.86
2022-08-25T01:33:54.297Z,42.46
2022-08-25T01:34:46.400Z,42.51
2022-08-25T01:35:32.094Z,42.85
2022-08-25T01:36:18.976Z,42.86
2022-08-25T01:37:09.318Z,42.78
2022-08-25T01:38:01.804Z,42.87
2022-08-25T01:41:43.011Z,42.89
2022-08-25T01:42:27.642Z,42.94
2022-08-25T01:43:21.905Z,42.89
2022-08-25T01:44:31.290Z,42.83
2022-08-25T01:45:31.134Z,42.65
2022-08-25T01:46:32.378Z,42.52
2022-08-25T01:47:30.019Z,42.64
2022-08-25T01:48:24.851Z,42.85
2022-08-25T01:49:14.360Z,42.85
2022-08-25T01:50:11.831Z,42.85
2022-08-25T01:50:58.094Z,42.90
2022-08-25T01:51:44.270Z,42.78
2022-08-25T01:52:36.407Z,42.89
2022-08-25T01:53:27.570Z,42.50
2022-08-25T01:54:22.310Z,42.80
2022-08-25T01:55:06.927Z,42.48
2022-08-25T01:56:54.969Z,42.72
2022-08-25T02:01:02.582Z,42.52
2022-08-25T02:02:08.503Z,42.55
2022-08-25T02:03:05.872Z,42.85
2022-08-25T02:04:07.573Z,42.72
2022-08-25T02:05:05.105Z,42.76
2022-08-25T02:05:52.749Z,42.86
2022-08-25T02:06:40.676Z,42.56
2022-08-25T02:07:28.726Z,42.91
2022-08-25T02:08:23.834Z,42.79
2022-08-25T02:09:19.760Z,42.76
2022-08-25T02:10:11.124Z,42.88
2022-08-25T02:11:17.616Z,42.79
2022-08-25T02:12:05.886Z,42.46
2022-08-25T02:12:58.390Z,42.74
2022-08-25T02:14:03.068Z,42.79
2022-08-25T02:14:59.257Z,42.69
2022-08-25T02:16:57.756Z,42.70
2022-08-25T02:17:57.665Z,42.54
2022-08-25T02:20:08.371Z,42.68
2022-08-25T02:21:05.993Z,42.56
2022-08-25T02:22:07.993Z,42.79
2022-08-25T02:23:58.471Z,43.05
2022-08-25T02:24:54.641Z,42.65
2022-08-25T02:25:48.292Z,42.90
2022-08-25T02:26:34.450Z,42.71
2022-08-25T02:27:20.007Z,42.63
2022-08-25T02:28:07.321Z,42.77
2022-08-25T02:28:57.071Z,42.95
2022-08-25T02:29:42.378Z,42.64
2022-08-25T02:30:27.457Z,42.63
2022-08-25T02:31:13.687Z,42.70
2022-08-25T02:32:01.948Z,42.76
2022-08-25T02:32:51.029Z,42.89
2022-08-25T02:33:44.512Z,42.55
2022-08-25T02:36:34.873Z,42.79
2022-08-25T02:37:22.460Z,42.59
2022-08-25T02:38:07.351Z,42.76
2022-08-25T02:38:57.540Z,42.81
2022-08-25T02:39:44.450Z,42.83
2022-08-25T02:40:36.695Z,42.57
2022-08-25T02:41:31.023Z,42.59
2022-08-25T02:42:17.743Z,42.87
2022-08-25T02:43:13.470Z,42.79
2022-08-25T02:44:09.701Z,42.89
2022-08-25T02:45:11.032Z,42.57
2022-08-25T02:46:02.833Z,42.81
2022-08-25T02:46:56.139Z,42.76
2022-08-25T02:47:43.957Z,42.87
2022-08-25T02:48:31.280Z,42.81
2022-08-25T02:49:14.869Z,42.55
2022-08-25T02:50:07.714Z,42.76
2022-08-25T02:50:53.605Z,42.55
2022-08-25T02:51:40.272Z,42.50
2022-08-25T02:52:26.450Z,42.63
2022-08-25T02:53:16.661Z,42.56
2022-08-25T02:54:05.397Z,42.68
2022-08-25T02:54:55.379Z,42.79
2022-08-25T02:55:38.095Z,42.63
2022-08-25T02:56:43.452Z,42.52
2022-08-25T02:58:35.031Z,42.79
2022-08-25T03:01:49.189Z,42.50
2022-08-25T03:02:47.933Z,42.52
2022-08-25T03:03:42.241Z,42.52
2022-08-25T03:04:36.783Z,42.45
2022-08-25T03:05:34.824Z,42.70
2022-08-25T03:06:28.729Z,42.50
2022-08-25T03:07:19.386Z,42.79
2022-08-25T03:08:07.979Z,42.60
2022-08-25T03:08:55.557Z,42.85
2022-08-25T03:09:41.637Z,42.58
2022-08-25T03:10:26.841Z,42.62
2022-08-25T03:11:10.319Z,42.66
2022-08-25T03:11:56.161Z,42.54
2022-08-25T03:12:38.401Z,42.58
2022-08-25T03:13:29.452Z,42.76
2022-08-25T03:14:19.058Z,42.61
2022-08-25T03:15:12.774Z,42.64
2022-08-25T03:16:55.502Z,42.68
2022-08-25T03:17:47.461Z,42.62
2022-08-25T03:18:37.355Z,42.86
2022-08-25T03:19:32.364Z,42.53
2022-08-25T03:20:16.138Z,42.59
2022-08-25T03:21:02.806Z,42.92
2022-08-25T03:21:50.610Z,42.93
2022-08-25T03:23:28.575Z,42.94
2022-08-25T03:24:31.361Z,42.69
2022-08-25T03:25:26.304Z,42.90
2022-08-25T03:27:17.060Z,42.54
2022-08-25T03:27:53.797Z,42.90
2022-08-25T03:28:30.441Z,42.78
2022-08-25T03:29:06.975Z,42.47
2022-08-25T03:29:42.504Z,42.85
2022-08-25T03:30:19.343Z,42.78
2022-08-25T03:30:56.722Z,42.87
2022-08-25T03:31:33.622Z,42.86
2022-08-25T03:32:10.717Z,42.59
2022-08-25T03:32:47.320Z,42.49
2022-08-25T03:33:23.629Z,42.78
2022-08-25T03:34:01.025Z,42.52
2022-08-25T03:34:37.688Z,42.65
2022-08-25T03:35:13.313Z,42.57
2022-08-25T03:35:50.828Z,42.54
2022-08-25T03:36:27.598Z,42.85
2022-08-25T03:37:04.985Z,42.85
2022-08-25T03:37:41.407Z,42.80
2022-08-25T03:38:18.355Z,42.75
2022-08-25T03:38:55.500Z,42.68
2022-08-25T03:39:32.655Z,42.53
2022-08-25T03:40:08.684Z,42.76
2022-08-25T03:40:51.192Z,42.42
2022-08-25T03:41:29.371Z,42.76
2022-08-25T03:42:10.289Z,42.78
2022-08-25T03:42:52.454Z,42.49
2022-08-25T03:43:33.578Z,42.70
2022-08-25T03:44:13.390Z,42.42
2022-08-25T03:44:53.019Z,42.71
2022-08-25T03:45:29.459Z,42.42
2022-08-25T03:46:06.143Z,42.44
2022-08-25T03:46:43.197Z,42.42
2022-08-25T03:47:19.644Z,42.72
2022-08-25T03:47:57.049Z,42.70
2022-08-25T03:48:33.286Z,42.66
2022-08-25T03:49:09.662Z,42.68
2022-08-25T03:49:46.172Z,42.45
2022-08-25T03:50:21.857Z,42.67
2022-08-25T03:50:57.431Z,42.52
2022-08-25T03:51:33.856Z,42.76
2022-08-25T03:52:15.824Z,42.75
2022-08-25T03:52:56.068Z,42.69
2022-08-25T03:53:32.941Z,42.48
2022-08-25T03:54:09.745Z,42.51
2022-08-25T03:54:46.274Z,42.45
2022-08-25T03:55:23.037Z,42.63
2022-08-25T03:55:58.546Z,42.47
2022-08-25T03:56:34.671Z,42.74
2022-08-25T03:57:10.608Z,42.37
2022-08-25T03:57:46.883Z,42.46
2022-08-25T03:58:24.333Z,42.61
2022-08-25T03:59:01.044Z,42.60
2022-08-25T03:59:38.003Z,42.64
2022-08-25T04:00:14.652Z,42.39
2022-08-25T04:00:51.206Z,42.56
2022-08-25T04:01:27.829Z,42.39
2022-08-25T04:02:03.480Z,42.34
2022-08-25T04:02:40.811Z,42.48
2022-08-25T04:03:19.300Z,42.32
2022-08-25T04:03:59.465Z,42.57
2022-08-25T04:04:42.089Z,42.60
2022-08-25T04:05:23.946Z,42.56
2022-08-25T04:06:03.001Z,42.59
2022-08-25T04:06:39.347Z,42.60
2022-08-25T04:07:15.748Z,42.62
2022-08-25T04:07:51.941Z,42.66
2022-08-25T04:08:29.470Z,42.32
2022-08-25T04:09:06.740Z,42.45
2022-08-25T04:09:44.015Z,42.35
2022-08-25T04:10:20.913Z,42.39
2022-08-25T04:10:58.066Z,42.39
2022-08-25T04:11:34.762Z,42.48
2022-08-25T04:12:11.163Z,42.52
2022-08-25T04:12:47.268Z,42.34
2022-08-25T04:13:23.461Z,42.58
2022-08-25T04:14:00.728Z,42.58
2022-08-25T04:14:38.333Z,42.36
2022-08-25T04:15:14.574Z,42.47
2022-08-25T04:15:51.851Z,42.82
2022-08-25T04:16:32.221Z,42.76
2022-08-25T04:17:11.068Z,42.82
2022-08-25T04:17:52.815Z,42.56
2022-08-25T04:18:29.712Z,42.78
2022-08-25T04:19:06.733Z,42.49
2022-08-25T04:19:43.988Z,42.86
2022-08-25T04:20:20.427Z,42.38
2022-08-25T04:20:57.331Z,42.71
2022-08-25T04:21:34.001Z,42.52
2022-08-25T04:22:11.095Z,42.54
2022-08-25T04:22:48.694Z,42.78
2022-08-25T04:23:24.837Z,42.47
2022-08-25T04:24:01.944Z,42.88
2022-08-25T04:24:39.191Z,42.43
2022-08-25T04:25:16.231Z,42.83
2022-08-25T04:25:52.756Z,42.47
2022-08-25T04:26:29.919Z,42.55
2022-08-25T04:27:06.111Z,42.46
2022-08-25T04:27:42.269Z,42.55
2022-08-25T04:28:18.931Z,42.56
2022-08-25T04:28:56.643Z,42.77
2022-08-25T04:29:36.797Z,42.51
2022-08-25T04:30:18.832Z,42.62
2022-08-25T04:30:55.511Z,42.95
2022-08-25T04:31:35.382Z,42.56
2022-08-25T04:32:16.454Z,42.59
2022-08-25T04:32:57.530Z,42.60
2022-08-25T04:33:37.606Z,42.80
2022-08-25T04:34:28.569Z,42.90
2022-08-25T04:35:08.280Z,42.68
2022-08-25T04:35:49.660Z,42.85
2022-08-25T04:36:29.002Z,42.62
2022-08-25T04:37:05.793Z,42.88
2022-08-25T04:37:42.592Z,42.88
2022-08-25T04:38:18.886Z,42.64
2022-08-25T04:38:55.768Z,42.72
2022-08-25T04:39:31.786Z,42.69
2022-08-25T04:40:08.637Z,42.61
2022-08-25T04:40:45.248Z,42.89
2022-08-25T04:41:21.684Z,43.03
2022-08-25T04:41:58.304Z,42.68
2022-08-25T04:42:34.836Z,42.66
2022-08-25T04:43:11.532Z,42.66
2022-08-25T04:43:47.811Z,42.92
2022-08-25T04:44:24.187Z,43.01
2022-08-25T04:45:00.678Z,42.79
2022-08-25T04:45:39.504Z,43.06
2022-08-25T04:46:20.787Z,42.73
2022-08-25T04:46:58.761Z,42.91
2022-08-25T04:47:36.602Z,42.78
2022-08-25T04:48:18.189Z,42.65
2022-08-25T04:48:58.264Z,42.67
2022-08-25T04:49:37.248Z,42.62
2022-08-25T04:50:19.543Z,43.02
2022-08-25T04:51:01.769Z,42.79
2022-08-25T04:51:50.260Z,42.92
2022-08-25T04:52:31.837Z,42.61
2022-08-25T04:53:14.130Z,42.96
2022-08-25T04:53:55.461Z,42.71
2022-08-25T04:54:37.232Z,42.82
2022-08-25T04:55:13.902Z,42.81
2022-08-25T04:55:51.164Z,43.08
2022-08-25T04:56:28.227Z,42.85
2022-08-25T04:57:04.901Z,42.82
2022-08-25T04:57:41.318Z,42.83
2022-08-25T04:58:17.481Z,42.87
2022-08-25T04:58:52.719Z,43.18
2022-08-25T04:59:30.438Z,43.20
2022-08-25T05:00:05.800Z,42.90
2022-08-25T05:00:42.572Z,42.96
2022-08-25T05:01:19.935Z,42.87
2022-08-25T05:01:56.983Z,42.87
2022-08-25T05:02:34.036Z,42.91
2022-08-25T05:03:10.590Z,42.99
2022-08-25T05:03:47.375Z,43.22
2022-08-25T05:04:28.370Z,43.17
2022-08-25T05:05:08.031Z,42.88
2022-08-25T05:05:51.400Z,42.88
2022-08-25T05:06:33.459Z,43.17
2022-08-25T05:07:16.754Z,43.22
2022-08-25T05:07:59.416Z,42.85
2022-08-25T05:08:37.987Z,42.87
2022-08-25T05:09:14.781Z,42.87
2022-08-25T05:09:58.614Z,43.05
2022-08-25T05:10:34.733Z,42.89
2022-08-25T05:11:10.517Z,43.00
2022-08-25T05:11:46.868Z,42.88
2022-08-25T05:12:23.945Z,42.85
2022-08-25T05:13:00.927Z,42.79
2022-08-25T05:13:37.137Z,43.16
2022-08-25T05:14:13.496Z,42.91
2022-08-25T05:14:49.567Z,42.85
2022-08-25T05:15:26.129Z,42.79
2022-08-25T05:16:02.785Z,43.11
2022-08-25T05:16:39.398Z,43.11
2022-08-25T05:17:16.205Z,42.90
2022-08-25T05:17:55.977Z,43.08
2022-08-25T05:18:32.190Z,43.14
2022-08-25T05:19:08.708Z,42.87
2022-08-25T05:19:44.874Z,43.08
2022-08-25T05:20:21.698Z,42.77
2022-08-25T05:20:58.765Z,42.93
2022-08-25T05:21:35.798Z,42.94
2022-08-25T05:22:12.188Z,42.92
2022-08-25T05:22:49.305Z,43.10
2022-08-25T05:23:29.239Z,42.91
2022-08-25T05:24:10.554Z,42.97
2022-08-25T05:24:51.908Z,43.10
2022-08-25T05:25:34.170Z,43.15
2022-08-25T05:26:16.534Z,42.92
2022-08-25T05:26:58.855Z,42.73
2022-08-25T05:27:41.273Z,43.01
2022-08-25T05:28:25.286Z,43.14
2022-08-25T05:29:08.547Z,42.89
2022-08-25T05:29:47.339Z,43.21
2022-08-25T05:30:23.383Z,43.03
2022-08-25T05:30:59.620Z,42.81
2022-08-25T05:31:40.998Z,43.11
2022-08-25T05:32:18.310Z,42.85
2022-08-25T05:32:55.294Z,43.12
2022-08-25T05:33:32.883Z,43.00
2022-08-25T05:34:08.652Z,43.14
2022-08-25T05:34:44.496Z,42.91
2022-08-25T05:35:20.558Z,43.10
2022-08-25T05:35:56.546Z,42.83
2022-08-25T05:36:33.133Z,42.94
2022-08-25T05:37:12.153Z,42.82
2022-08-25T05:37:47.741Z,42.77
2022-08-25T05:38:24.953Z,42.98
2022-08-25T05:39:01.597Z,43.01
2022-08-25T05:39:37.820Z,42.80
2022-08-25T05:40:14.883Z,42.98
2022-08-25T05:40:52.125Z,43.03
2022-08-25T05:41:30.208Z,42.81
2022-08-25T05:42:07.310Z,42.78
2022-08-25T05:42:44.101Z,42.77
2022-08-25T05:43:20.748Z,42.86
2022-08-25T05:43:57.638Z,42.73
2022-08-25T05:44:34.095Z,43.07
2022-08-25T05:45:09.891Z,42.85
2022-08-25T05:45:51.507Z,42.78
2022-08-25T05:46:28.683Z,42.91
2022-08-25T05:47:07.241Z,43.03
2022-08-25T05:47:43.551Z,43.08
2022-08-25T05:48:20.394Z,42.95
2022-08-25T05:49:13.785Z,42.86
2022-08-25T05:50:02.082Z,42.85
2022-08-25T05:50:59.739Z,43.24
2022-08-25T05:51:49.204Z,43.20
2022-08-25T05:52:33.663Z,42.99
2022-08-25T05:53:19.559Z,43.16
2022-08-25T05:54:11.589Z,42.93
2022-08-25T05:55:02.101Z,43.03
2022-08-25T05:55:46.061Z,43.19
2022-08-25T05:56:39.995Z,43.22
2022-08-25T05:57:27.241Z,43.07
2022-08-25T05:58:17.785Z,43.13
2022-08-25T05:59:04.977Z,43.02
2022-08-25T05:59:51.503Z,43.29
2022-08-25T06:00:37.398Z,42.91
2022-08-25T06:01:27.578Z,43.19
2022-08-25T06:02:13.675Z,43.33
2022-08-25T06:03:05.800Z,43.03
2022-08-25T06:03:50.566Z,43.02
2022-08-25T06:04:41.400Z,43.04
2022-08-25T06:05:26.959Z,43.38
2022-08-25T06:06:15.985Z,43.07
2022-08-25T06:07:00.951Z,43.23
2022-08-25T06:07:52.902Z,43.28
2022-08-25T06:08:40.771Z,43.14
2022-08-25T06:09:31.867Z,43.40
2022-08-25T06:10:15.354Z,43.06
2022-08-25T06:11:06.044Z,43.42
2022-08-25T06:11:51.640Z,43.27
2022-08-25T06:12:43.659Z,43.16
2022-08-25T06:13:30.428Z,43.46
2022-08-25T06:14:21.572Z,43.48
2022-08-25T06:15:06.630Z,43.11
2022-08-25T06:15:56.329Z,43.49
2022-08-25T06:16:42.957Z,43.42
2022-08-25T06:17:33.722Z,43.62
2022-08-25T06:18:19.584Z,43.50
2022-08-25T06:19:07.148Z,43.23
2022-08-25T06:19:49.528Z,43.23
2022-08-25T06:20:42.465Z,43.31
2022-08-25T06:21:30.040Z,43.44
2022-08-25T06:22:19.373Z,43.66
2022-08-25T06:23:06.138Z,43.38
2022-08-25T06:24:29.913Z,43.42
2022-08-25T06:25:24.231Z,43.41
2022-08-25T06:26:20.598Z,43.42
2022-08-25T06:27:11.981Z,43.57
2022-08-25T06:28:01.145Z,43.72
2022-08-25T06:28:49.388Z,43.70
2022-08-25T06:29:33.126Z,43.80
2022-08-25T06:30:24.510Z,43.73
2022-08-25T06:31:15.016Z,43.60
2022-08-25T06:32:02.124Z,43.47
2022-08-25T06:32:49.832Z,43.73
2022-08-25T06:33:39.042Z,43.49
2022-08-25T06:34:25.914Z,43.77
2022-08-25T06:35:12.852Z,43.74
2022-08-25T06:36:01.920Z,43.83
2022-08-25T06:36:51.027Z,43.67
2022-08-25T06:37:39.185Z,43.73
2022-08-25T06:38:27.771Z,43.69
2022-08-25T06:39:17.911Z,43.84
2022-08-25T06:40:09.256Z,43.66
2022-08-25T06:40:59.142Z,43.71
2022-08-25T06:41:53.687Z,43.65
2022-08-25T06:43:01.621Z,43.64
2022-08-25T06:44:05.004Z,43.89
2022-08-25T06:44:53.368Z,43.57
2022-08-25T06:45:37.233Z,43.67
2022-08-25T06:46:35.814Z,43.99
2022-08-25T06:47:22.940Z,44.04
2022-08-25T06:48:13.503Z,43.75
2022-08-25T06:51:14.048Z,43.89
2022-08-25T06:52:12.261Z,43.75
2022-08-25T06:53:10.875Z,43.96
2022-08-25T06:54:17.555Z,43.89
2022-08-25T06:55:00.267Z,43.86
2022-08-25T06:55:56.511Z,43.92
2022-08-25T06:56:53.062Z,44.04
2022-08-25T06:57:39.041Z,44.04
2022-08-25T06:58:23.627Z,43.82
2022-08-25T07:01:15.737Z,43.90
2022-08-25T07:02:57.193Z,44.03
2022-08-25T07:03:52.595Z,44.01
2022-08-25T07:04:27.135Z,43.91
2022-08-25T07:05:33.717Z,44.03
2022-08-25T07:06:33.079Z,44.00
2022-08-25T07:07:42.934Z,43.98
2022-08-25T07:08:33.471Z,44.24
2022-08-25T07:09:19.159Z,44.22
2022-08-25T07:10:11.014Z,44.09
2022-08-25T07:10:57.728Z,44.41
2022-08-25T07:11:51.308Z,43.98
2022-08-25T07:12:37.168Z,44.29
2022-08-25T07:13:26.897Z,43.98
2022-08-25T07:14:12.969Z,43.96
2022-08-25T07:15:19.280Z,44.07
2022-08-25T07:16:10.265Z,44.07
2022-08-25T07:17:15.546Z,44.30
2022-08-25T07:18:11.877Z,44.15
2022-08-25T07:19:00.389Z,44.07
2022-08-25T07:19:48.670Z,44.38
2022-08-25T07:20:38.671Z,44.25
2022-08-25T07:21:27.858Z,44.30
2022-08-25T07:22:19.469Z,44.39
2022-08-25T07:23:04.247Z,44.17
2022-08-25T07:23:55.845Z,44.12
2022-08-25T07:25:02.890Z,44.49
2022-08-25T07:25:51.210Z,44.45
2022-08-25T07:26:59.761Z,44.46
2022-08-25T07:27:49.586Z,44.21
2022-08-25T07:28:39.198Z,44.35
2022-08-25T07:29:33.184Z,44.54
2022-08-25T07:30:19.450Z,44.43
2022-08-25T07:31:05.399Z,44.60
2022-08-25T07:31:58.236Z,44.44
2022-08-25T07:32:48.072Z,44.50
2022-08-25T07:34:36.972Z,44.41
2022-08-25T07:35:37.364Z,44.20
2022-08-25T07:36:24.786Z,44.22
2022-08-25T07:37:23.790Z,44.26
2022-08-25T07:38:20.846Z,44.14
2022-08-25T07:39:10.517Z,44.57
2022-08-25T07:39:58.644Z,44.58
2022-08-25T07:40:53.465Z,44.26
2022-08-25T07:41:52.562Z,44.37
2022-08-25T07:42:45.196Z,44.63
2022-08-25T07:43:39.179Z,44.34
2022-08-25T07:44:30.504Z,44.35
2022-08-25T07:46:17.914Z,44.32
2022-08-25T07:47:06.114Z,44.25
2022-08-25T07:47:54.365Z,44.71
2022-08-25T07:48:41.538Z,44.70
2022-08-25T07:49:25.603Z,44.66
2022-08-25T07:50:12.822Z,44.45
2022-08-25T07:50:58.999Z,44.71
2022-08-25T07:52:05.601Z,44.42
2022-08-25T07:52:55.471Z,44.60
2022-08-25T07:53:51.404Z,44.77
2022-08-25T07:54:35.091Z,44.73
2022-08-25T07:55:47.221Z,44.46
2022-08-25T07:56:43.912Z,44.33
2022-08-25T07:57:55.979Z,44.70
2022-08-25T07:58:52.302Z,44.34
2022-08-25T08:02:17.766Z,44.52
2022-08-25T08:05:06.352Z,44.30
2022-08-25T08:06:04.873Z,44.46
2022-08-25T08:07:11.933Z,44.62
2022-08-25T08:08:11.198Z,44.30
2022-08-25T08:09:17.947Z,44.59
2022-08-25T08:10:37.063Z,44.38
2022-08-25T08:11:13.197Z,44.63
2022-08-25T08:13:09.137Z,44.57
2022-08-25T08:15:11.310Z,44.62
2022-08-25T08:16:13.195Z,44.50
2022-08-25T08:17:06.710Z,44.60
2022-08-25T08:18:03.811Z,44.67
2022-08-25T08:20:59.248Z,44.56
2022-08-25T08:24:44.223Z,44.29
2022-08-25T08:25:37.954Z,44.63
2022-08-25T08:27:58.893Z,44.68
2022-08-25T08:30:10.621Z,44.73
2022-08-25T08:34:18.604Z,44.36
2022-08-25T08:35:14.557Z,44.70
2022-08-25T08:36:18.564Z,44.61
2022-08-25T08:37:18.149Z,44.50
2022-08-25T08:41:14.285Z,44.65
2022-08-25T08:44:20.534Z,44.34
2022-08-25T08:45:26.055Z,44.38
2022-08-25T08:46:18.494Z,44.37
2022-08-25T08:47:25.501Z,44.46
2022-08-25T08:49:28.035Z,44.41
2022-08-25T08:53:40.917Z,44.67
2022-08-25T08:54:36.212Z,44.36
2022-08-25T08:55:20.765Z,44.63
2022-08-25T08:56:02.472Z,44.67
2022-08-25T08:56:52.235Z,44.73
2022-08-25T08:57:40.901Z,44.70
2022-08-25T08:58:26.528Z,44.47
2022-08-25T08:59:13.439Z,44.36
2022-08-25T09:00:08.563Z,44.33
2022-08-25T09:01:05.151Z,44.70
2022-08-25T09:01:53.219Z,44.70
2022-08-25T09:02:51.620Z,44.47
2022-08-25T09:03:40.694Z,44.58
2022-08-25T09:04:32.667Z,44.72
2022-08-25T09:05:29.045Z,44.40
2022-08-25T09:06:23.518Z,44.66
2022-08-25T09:07:16.734Z,44.73
2022-08-25T09:09:15.464Z,44.66
2022-08-25T09:10:57.966Z,44.53
2022-08-25T09:11:48.630Z,44.37
2022-08-25T09:12:33.542Z,44.55
2022-08-25T09:13:26.378Z,44.42
2022-08-25T09:14:14.612Z,44.36
2022-08-25T09:15:13.052Z,44.61
2022-08-25T09:16:03.262Z,44.52
2022-08-25T09:16:48.807Z,44.66
2022-08-25T09:17:35.353Z,44.61
2022-08-25T09:18:23.164Z,44.70
2022-08-25T09:19:21.231Z,44.46
2022-08-25T09:20:20.799Z,44.69
2022-08-25T09:21:08.532Z,44.77
2022-08-25T09:22:35.649Z,44.75
2022-08-25T09:23:07.554Z,44.72
2022-08-25T09:24:00.299Z,44.40
2022-08-25T09:24:46.597Z,44.43
2022-08-25T09:25:53.215Z,44.72
2022-08-25T09:26:45.820Z,44.80
2022-08-25T09:27:31.068Z,44.49
2022-08-25T09:28:24.583Z,44.47
2022-08-25T09:30:07.806Z,44.44
2022-08-25T09:31:01.754Z,44.38
2022-08-25T09:31:48.236Z,44.51
2022-08-25T09:32:37.684Z,44.45
2022-08-25T09:33:23.600Z,44.70
2022-08-25T09:34:12.414Z,44.80
2022-08-25T09:34:57.708Z,44.44
2022-08-25T09:35:46.725Z,44.80
2022-08-25T09:36:37.536Z,44.46
2022-08-25T09:37:24.531Z,44.64
2022-08-25T09:38:08.118Z,44.78
2022-08-25T09:39:00.676Z,44.64
2022-08-25T09:39:45.644Z,44.58
2022-08-25T09:40:35.597Z,44.44
2022-08-25T09:41:22.895Z,44.82
2022-08-25T09:42:18.272Z,44.70
2022-08-25T09:43:13.348Z,44.44
2022-08-25T09:43:58.594Z,44.74
2022-08-25T09:44:47.415Z,44.44
2022-08-25T09:45:35.936Z,44.74
2022-08-25T09:46:29.028Z,44.49
2022-08-25T09:47:32.674Z,44.56
2022-08-25T09:48:29.060Z,44.45
2022-08-25T09:49:22.709Z,44.46
2022-08-25T09:50:12.425Z,44.44
2022-08-25T09:51:02.737Z,44.45
2022-08-25T09:51:52.664Z,44.79
2022-08-25T09:52:37.129Z,44.50
2022-08-25T09:53:29.715Z,44.52
2022-08-25T09:54:25.487Z,44.69
2022-08-25T09:55:20.951Z,44.63
2022-08-25T09:56:31.573Z,44.79
2022-08-25T09:58:32.150Z,44.77
2022-08-25T09:59:57.305Z,44.73
2022-08-25T10:00:48.829Z,44.81
2022-08-25T10:02:00.310Z,44.56
2022-08-25T10:03:00.980Z,44.47
2022-08-25T10:05:41.911Z,44.53
2022-08-25T10:08:29.061Z,44.61
2022-08-25T10:11:46.717Z,44.80
2022-08-25T10:14:31.309Z,44.48
2022-08-25T10:15:29.868Z,44.75
2022-08-25T10:16:24.261Z,44.58
2022-08-25T10:17:09.170Z,44.88
2022-08-25T10:17:57.604Z,44.51
2022-08-25T10:19:43.841Z,44.50
2022-08-25T10:20:38.190Z,44.81
2022-08-25T10:21:28.012Z,44.47
2022-08-25T10:22:17.861Z,44.53
2022-08-25T10:23:06.023Z,44.81
2022-08-25T10:24:57.233Z,44.51
2022-08-25T10:25:57.843Z,44.53
2022-08-25T10:26:46.993Z,44.51
2022-08-25T10:27:34.053Z,44.58
2022-08-25T10:28:24.765Z,44.76
2022-08-25T10:29:15.085Z,44.52
2022-08-25T10:30:04.590Z,44.46
2022-08-25T10:30:55.605Z,44.86
2022-08-25T10:31:41.423Z,44.72
2022-08-25T10:33:17.544Z,44.45
2022-08-25T10:34:09.405Z,44.46
2022-08-25T10:34:56.747Z,44.77
2022-08-25T10:35:47.804Z,44.60
2022-08-25T10:36:34.186Z,44.47
2022-08-25T10:37:24.346Z,44.53
2022-08-25T10:38:09.245Z,44.46
2022-08-25T10:39:01.520Z,44.71
2022-08-25T10:39:46.545Z,44.51
2022-08-25T10:40:42.422Z,44.49
2022-08-25T10:41:27.033Z,44.52
2022-08-25T10:42:17.659Z,44.50
2022-08-25T10:43:03.119Z,44.38
2022-08-25T10:44:34.455Z,44.42
2022-08-25T10:45:29.898Z,44.71
2022-08-25T10:46:16.665Z,44.46
2022-08-25T10:47:07.795Z,44.79
2022-08-25T10:47:49.434Z,44.68
2022-08-25T10:48:43.721Z,44.50
2022-08-25T10:49:29.997Z,44.43
2022-08-25T10:50:16.842Z,44.37
2022-08-25T10:51:03.177Z,44.68
2022-08-25T10:51:53.171Z,44.78
2022-08-25T10:52:38.360Z,44.49
2022-08-25T10:53:28.611Z,44.69
2022-08-25T10:54:19.453Z,44.65
2022-08-25T10:55:09.834Z,44.41
2022-08-25T10:55:56.190Z,44.38
2022-08-25T10:56:44.606Z,44.46
2022-08-25T10:57:31.496Z,44.45
2022-08-25T10:58:24.430Z,44.75
2022-08-25T10:59:14.780Z,44.50
2022-08-25T11:00:04.313Z,44.52
2022-08-25T11:00:51.345Z,44.39
2022-08-25T11:01:42.857Z,44.68
2022-08-25T11:02:26.349Z,44.39
2022-08-25T11:03:12.494Z,44.39
2022-08-25T11:03:56.648Z,44.42
2022-08-25T11:04:45.085Z,44.69
2022-08-25T11:05:32.498Z,44.46
2022-08-25T11:06:24.647Z,44.42
2022-08-25T11:07:11.780Z,44.63
2022-08-25T11:08:03.880Z,44.46
2022-08-25T11:08:49.726Z,44.50
2022-08-25T11:09:41.218Z,44.68
2022-08-25T11:10:26.276Z,44.62
2022-08-25T11:11:16.933Z,44.38
2022-08-25T11:12:02.175Z,44.38
2022-08-25T11:12:53.709Z,44.56
2022-08-25T11:13:40.308Z,44.67
2022-08-25T11:14:34.525Z,44.36
2022-08-25T11:15:25.356Z,44.47
2022-08-25T11:16:37.075Z,44.40
2022-08-25T11:17:45.020Z,44.38
2022-08-25T11:19:44.522Z,44.35
2022-08-25T11:24:12.172Z,44.33
2022-08-25T11:24:56.869Z,44.69
2022-08-25T11:25:44.575Z,44.54
2022-08-25T11:26:31.051Z,44.70
2022-08-25T11:27:15.581Z,44.36
2022-08-25T11:28:01.095Z,44.37
2022-08-25T11:28:49.463Z,44.68
2022-08-25T11:29:39.554Z,44.33
2022-08-25T11:30:26.971Z,44.67
2022-08-25T11:31:13.554Z,44.37
2022-08-25T11:31:59.056Z,44.69
2022-08-25T11:32:44.843Z,44.36
2022-08-25T11:33:33.285Z,44.62
2022-08-25T11:34:19.951Z,44.34
2022-08-25T11:35:06.156Z,44.50
2022-08-25T11:35:55.136Z,44.32
2022-08-25T11:36:41.192Z,44.47
2022-08-25T11:37:25.088Z,44.25
2022-08-25T11:38:10.555Z,44.41
2022-08-25T11:38:56.031Z,44.22
2022-08-25T11:39:46.319Z,44.62
2022-08-25T11:40:33.250Z,44.22
2022-08-25T11:41:21.587Z,44.54
2022-08-25T11:42:04.862Z,44.61
2022-08-25T11:42:52.672Z,44.62
2022-08-25T11:43:40.847Z,44.32
2022-08-25T11:44:28.922Z,44.29
2022-08-25T11:45:14.986Z,44.51
2022-08-25T11:46:04.326Z,44.58
2022-08-25T11:46:54.457Z,44.62
2022-08-25T11:47:40.772Z,44.26
2022-08-25T11:48:24.711Z,44.46